Time;durP1;ratioP1;P1;durP2;ratioP2;P2;SDS_P1;SDS_P2;PMS_P1;PMS_P2;Temp;Humidity;BMP_temperature;BMP_pressure;BME280_temperature;BME280_humidity;BME280_pressure;Samples;Min_cycle;Max_cycle;Signal;HPM_P1;HPM_P2
2023/10/06 00:00:54;;;;;;;9.43;6.68;;;;;;;13.77;100.00;93713.06;5068311;28;20040;-72
2023/10/06 00:03:21;;;;;;;9.95;7.40;;;;;;;13.74;100.00;93703.16;5065973;28;20047;-72
2023/10/06 00:05:49;;;;;;;12.82;6.85;;;;;;;13.72;100.00;93698.22;5067034;28;20420;-72
2023/10/06 00:08:17;;;;;;;10.43;6.18;;;;;;;13.71;100.00;93703.59;5067078;28;20052;-72
2023/10/06 00:10:51;;;;;;;12.48;6.47;;;;;;;13.56;100.00;93676.34;5064681;28;20076;-72
2023/10/06 00:13:28;;;;;;;9.88;6.20;;;;;;;13.69;100.00;93693.47;5067792;28;20530;-72
2023/10/06 00:15:56;;;;;;;9.05;6.50;;;;;;;13.74;100.00;93701.38;5068295;28;20048;-72
2023/10/06 00:18:23;;;;;;;11.65;7.60;;;;;;;13.71;100.00;93701.00;5068872;28;20045;-72
2023/10/06 00:20:56;;;;;;;11.07;7.15;;;;;;;13.69;100.00;93695.25;5066229;28;20045;-72
2023/10/06 00:23:23;;;;;;;11.50;6.80;;;;;;;13.61;100.00;93698.94;5063780;28;20052;-72
2023/10/06 00:25:52;;;;;;;10.57;6.97;;;;;;;13.62;100.00;93708.25;5067545;28;20048;-72
2023/10/06 00:28:22;;;;;;;11.00;7.28;;;;;;;13.56;100.00;93697.00;5067062;28;20044;-72
2023/10/06 00:30:56;;;;;;;10.50;7.50;;;;;;;13.54;100.00;93703.38;5067813;28;20424;-72
2023/10/06 00:33:26;;;;;;;11.10;7.18;;;;;;;13.53;100.00;93688.91;5066435;28;20506;-72
2023/10/06 00:35:54;;;;;;;15.95;7.57;;;;;;;13.52;100.00;93688.09;5065716;28;20318;-72
2023/10/06 00:38:22;;;;;;;9.77;7.03;;;;;;;13.50;100.00;93703.03;5064950;28;20515;-72
2023/10/06 00:40:52;;;;;;;11.13;7.00;;;;;;;13.46;100.00;93704.41;5068085;28;20048;-73
2023/10/06 00:43:34;;;;;;;15.73;7.70;;;;;;;13.46;100.00;93707.81;5063249;28;20045;-72
2023/10/06 00:46:03;;;;;;;10.38;6.97;;;;;;;13.40;100.00;93702.69;5066178;28;20052;-75
2023/10/06 00:48:32;;;;;;;10.95;7.18;;;;;;;13.36;100.00;93703.13;5065827;28;20049;-75
2023/10/06 00:51:01;;;;;;;12.73;7.82;;;;;;;13.34;100.00;93701.78;5064189;28;20055;-75
2023/10/06 00:53:32;;;;;;;9.98;7.28;;;;;;;13.31;100.00;93707.34;5068351;28;20053;-75
2023/10/06 00:56:04;;;;;;;11.77;7.47;;;;;;;13.25;100.00;93701.28;5068716;28;20105;-75
2023/10/06 00:58:34;;;;;;;14.30;7.47;;;;;;;13.30;100.00;93706.59;5061541;28;20055;-75
2023/10/06 01:01:05;;;;;;;12.55;7.95;;;;;;;13.27;100.00;93699.25;5067975;28;20748;-76
2023/10/06 01:03:38;;;;;;;13.05;7.88;;;;;;;13.22;100.00;93688.78;5066580;28;20048;-76
2023/10/06 01:06:12;;;;;;;12.07;7.57;;;;;;;13.40;100.00;93705.28;5064967;28;20052;-77
2023/10/06 01:08:38;;;;;;;14.05;8.20;;;;;;;13.18;100.00;93661.84;5067804;28;20045;-76
2023/10/06 01:11:11;;;;;;;10.82;7.20;;;;;;;13.39;100.00;93693.38;5067701;28;20056;-76
2023/10/06 01:13:52;;;;;;;11.95;7.55;;;;;;;13.43;100.00;93702.28;5066259;28;20041;-76
2023/10/06 01:16:22;;;;;;;16.50;7.45;;;;;;;13.38;100.00;93690.00;5064948;28;20053;-76
2023/10/06 01:18:52;;;;;;;9.82;7.10;;;;;;;13.49;100.00;93707.41;5067257;28;20048;-76
2023/10/06 01:21:28;;;;;;;10.65;7.93;;;;;;;13.47;100.00;93700.88;5067864;28;20076;-76
2023/10/06 01:24:10;;;;;;;10.95;7.25;;;;;;;13.53;100.00;93709.53;5064034;28;20044;-76
2023/10/06 01:26:41;;;;;;;13.18;7.85;;;;;;;13.51;100.00;93699.44;5065384;28;20048;-75
2023/10/06 01:29:10;;;;;;;10.95;7.25;;;;;;;13.52;100.00;93706.16;5067314;28;20439;-75
2023/10/06 01:31:39;;;;;;;12.15;7.57;;;;;;;13.56;100.00;93712.47;5058506;28;20099;-76
2023/10/06 01:34:08;;;;;;;12.98;7.72;;;;;;;13.58;100.00;93709.69;5068600;28;20076;-76
2023/10/06 01:36:35;;;;;;;9.98;7.13;;;;;;;13.56;100.00;93711.72;5065569;28;20044;-76
2023/10/06 01:39:05;;;;;;;10.68;6.72;;;;;;;13.59;100.00;93709.47;5068155;28;20433;-76
2023/10/06 01:41:34;;;;;;;10.95;7.22;;;;;;;13.58;100.00;93702.75;5065942;28;20106;-75
2023/10/06 01:44:09;;;;;;;12.20;7.93;;;;;;;13.48;100.00;93689.56;5065237;28;20044;-75
2023/10/06 01:46:37;;;;;;;12.05;7.05;;;;;;;13.63;100.00;93715.00;5064839;28;20476;-75
2023/10/06 01:49:04;;;;;;;12.20;8.68;;;;;;;13.67;100.00;93707.59;5061938;28;20090;-75
2023/10/06 01:51:35;;;;;;;12.10;7.47;;;;;;;13.36;100.00;93655.91;5067709;28;20051;-75
2023/10/06 01:54:04;;;;;;;13.10;7.55;;;;;;;13.76;100.00;93711.47;5067959;28;20133;-75
2023/10/06 01:56:31;;;;;;;10.07;7.07;;;;;;;13.74;100.00;93713.47;5061483;28;20040;-75
2023/10/06 01:58:59;;;;;;;10.23;6.93;;;;;;;13.74;100.00;93718.63;5065035;28;20144;-76
2023/10/06 02:01:25;;;;;;;12.18;7.40;;;;;;;13.75;100.00;93713.25;5062812;28;20477;-76
2023/10/06 02:03:52;;;;;;;20.42;11.43;;;;;;;13.73;100.00;93711.91;5057132;28;20394;-76
2023/10/06 02:06:19;;;;;;;50.58;21.83;;;;;;;13.65;100.00;93709.63;5060734;28;20064;-76
2023/10/06 02:08:51;;;;;;;19.88;10.73;;;;;;;13.56;100.00;93711.72;5065062;28;20044;-76
2023/10/06 02:11:21;;;;;;;27.85;13.85;;;;;;;13.35;100.00;93682.72;5067663;28;20044;-75
2023/10/06 02:13:48;;;;;;;18.27;11.38;;;;;;;13.61;100.00;93719.59;5067778;28;20047;-75
2023/10/06 02:16:18;;;;;;;20.92;11.35;;;;;;;13.66;100.00;93724.88;5063984;28;20071;-75
2023/10/06 02:18:44;;;;;;;16.90;9.95;;;;;;;13.68;100.00;93732.41;5067372;28;20045;-75
2023/10/06 02:21:14;;;;;;;13.70;8.45;;;;;;;13.54;100.00;93704.16;5065012;28;20055;-75
2023/10/06 02:23:42;;;;;;;11.45;8.32;;;;;;;13.70;100.00;93731.19;5064952;28;20125;-76
2023/10/06 02:26:12;;;;;;;14.25;8.60;;;;;;;13.71;100.00;93724.25;5067466;28;20444;-75
2023/10/06 02:28:48;;;;;;;16.70;8.18;;;;;;;13.76;100.00;93737.28;5063189;28;20044;-76
2023/10/06 02:31:15;;;;;;;13.10;8.38;;;;;;;13.78;100.00;93737.84;5066858;28;20493;-74
2023/10/06 02:33:47;;;;;;;13.90;9.00;;;;;;;13.84;100.00;93739.56;5065055;28;20555;-74
2023/10/06 02:36:17;;;;;;;12.68;7.80;;;;;;;13.85;100.00;93742.97;5067149;28;20047;-74
2023/10/06 02:38:47;;;;;;;11.57;7.72;;;;;;;13.81;100.00;93729.69;5067015;28;20071;-74
2023/10/06 02:41:25;;;;;;;12.65;7.65;;;;;;;13.87;100.00;93731.41;5062473;28;20076;-73
2023/10/06 02:43:54;;;;;;;11.07;7.85;;;;;;;13.91;100.00;93739.50;5067102;28;20050;-74
2023/10/06 02:46:23;;;;;;;9.32;7.20;;;;;;;13.94;100.00;93736.50;5063637;28;20067;-74
2023/10/06 02:48:50;;;;;;;9.32;6.90;;;;;;;13.96;100.00;93744.81;5067017;28;20412;-74
2023/10/06 02:51:20;;;;;;;13.35;7.90;;;;;;;13.97;100.00;93737.84;5064721;28;20048;-74
2023/10/06 02:53:49;;;;;;;11.52;7.07;;;;;;;13.97;100.00;93736.06;5063683;28;20492;-75
2023/10/06 02:56:16;;;;;;;10.98;7.32;;;;;;;13.97;100.00;93732.66;5066965;28;20067;-74
2023/10/06 02:58:43;;;;;;;10.20;6.97;;;;;;;14.00;100.00;93732.25;5061390;28;20114;-74
2023/10/06 03:01:14;;;;;;;12.63;7.05;;;;;;;14.02;100.00;93735.38;5064011;28;20492;-74
2023/10/06 03:03:40;;;;;;;10.43;7.13;;;;;;;14.05;100.00;93734.16;5062332;28;20128;-73
2023/10/06 03:06:08;;;;;;;10.50;6.82;;;;;;;14.06;100.00;93731.38;5066756;28;20056;-74
2023/10/06 03:08:35;;;;;;;10.30;7.63;;;;;;;14.07;100.00;93740.69;5066589;28;20059;-74
2023/10/06 03:11:03;;;;;;;12.07;7.25;;;;;;;13.90;100.00;93706.94;5063913;28;20135;-74
2023/10/06 03:13:33;;;;;;;11.10;7.28;;;;;;;14.11;100.00;93739.25;5067625;28;20052;-74
2023/10/06 03:16:00;;;;;;;11.18;7.05;;;;;;;14.12;100.00;93746.00;5063303;28;20576;-74
2023/10/06 03:18:30;;;;;;;11.85;7.22;;;;;;;14.09;100.00;93743.06;5065948;28;20048;-74
2023/10/06 03:20:59;;;;;;;12.73;7.57;;;;;;;14.07;100.00;93740.69;5070269;28;20086;-74
2023/10/06 03:23:31;;;;;;;11.63;7.57;;;;;;;14.08;100.00;93738.91;5070642;28;20138;-74
2023/10/06 03:26:02;;;;;;;14.25;7.53;;;;;;;14.02;100.00;93736.19;5070839;28;20051;-74
2023/10/06 03:28:32;;;;;;;22.75;7.95;;;;;;;13.94;100.00;93715.84;5064624;28;20777;-74
2023/10/06 03:31:03;;;;;;;12.95;7.82;;;;;;;14.01;100.00;93732.03;5070027;28;20406;-74
2023/10/06 03:33:31;;;;;;;12.45;7.07;;;;;;;14.00;100.00;93735.63;5069044;28;20048;-74
2023/10/06 03:35:59;;;;;;;10.77;7.32;;;;;;;13.72;100.00;93700.00;5066414;28;20048;-73
2023/10/06 03:38:35;;;;;;;13.45;7.80;;;;;;;13.87;100.00;93739.16;5070531;28;20053;-74
2023/10/06 03:41:18;;;;;;;15.35;9.50;;;;;;;13.81;100.00;93737.44;5065322;28;20523;-74
2023/10/06 03:43:50;;;;;;;15.45;9.00;;;;;;;13.78;100.00;93737.84;5068938;28;20051;-73
2023/10/06 03:46:19;;;;;;;12.23;7.82;;;;;;;13.71;100.00;93742.31;5062333;28;20421;-74
2023/10/06 03:48:51;;;;;;;14.65;9.10;;;;;;;13.69;100.00;93741.72;5067569;28;20094;-74
2023/10/06 03:51:18;;;;;;;17.85;11.52;;;;;;;13.65;100.00;93733.63;5069563;28;20501;-74
2023/10/06 03:53:48;;;;;;;20.90;12.63;;;;;;;13.64;100.00;93739.81;5068097;28;20045;-74
2023/10/06 03:56:17;;;;;;;20.00;11.35;;;;;;;13.60;100.00;93741.22;5066290;28;20076;-75
2023/10/06 03:58:45;;;;;;;15.05;10.52;;;;;;;13.56;100.00;93740.09;5070184;28;20048;-75
2023/10/06 04:01:16;;;;;;;11.10;8.35;;;;;;;13.45;100.00;93729.44;5067076;28;20151;-74
2023/10/06 04:03:44;;;;;;;16.35;8.45;;;;;;;13.40;100.00;93726.72;5065740;28;20041;-74
2023/10/06 04:06:15;;;;;;;12.10;8.25;;;;;;;13.36;100.00;93741.84;5069038;28;20044;-74
2023/10/06 04:08:45;;;;;;;12.85;8.98;;;;;;;13.31;100.00;93722.84;5069663;28;20048;-74
2023/10/06 04:11:15;;;;;;;15.68;10.07;;;;;;;13.32;100.00;93730.38;5067765;28;20049;-74
2023/10/06 04:13:42;;;;;;;16.00;9.60;;;;;;;13.28;100.00;93736.94;5067639;28;20053;-74
2023/10/06 04:16:09;;;;;;;16.05;9.75;;;;;;;13.28;100.00;93738.75;5067997;28;20055;-74
2023/10/06 04:18:36;;;;;;;16.88;8.68;;;;;;;13.24;100.00;93743.53;5066088;28;20052;-74
2023/10/06 04:21:03;;;;;;;16.42;8.57;;;;;;;13.19;100.00;93745.97;5069164;28;20489;-74
2023/10/06 04:23:31;;;;;;;14.80;9.13;;;;;;;13.14;100.00;93751.75;5061312;28;20071;-74
2023/10/06 04:25:58;;;;;;;28.33;16.40;;;;;;;13.09;100.00;93743.88;5066917;28;20044;-74
2023/10/06 04:28:27;;;;;;;45.65;21.10;;;;;;;13.04;100.00;93754.81;5067606;28;20052;-75
2023/10/06 04:30:57;;;;;;;37.33;20.17;;;;;;;12.97;100.00;93756.66;5065851;28;20048;-74
2023/10/06 04:33:25;;;;;;;22.60;12.35;;;;;;;12.92;100.00;93753.94;5068330;28;20084;-75
2023/10/06 04:35:55;;;;;;;24.25;13.88;;;;;;;12.89;100.00;93754.34;5065206;28;20079;-75
2023/10/06 04:38:23;;;;;;;15.95;8.60;;;;;;;12.89;100.00;93760.31;5065559;28;20191;-75
2023/10/06 04:40:51;;;;;;;13.60;8.50;;;;;;;12.86;100.00;93760.69;5062652;28;20049;-74
2023/10/06 04:43:18;;;;;;;18.95;9.90;;;;;;;12.88;100.00;93757.94;5069229;28;20084;-75
2023/10/06 04:45:47;;;;;;;15.88;10.32;;;;;;;12.95;100.00;93769.78;5064231;28;20040;-74
2023/10/06 04:48:15;;;;;;;16.88;10.27;;;;;;;12.97;100.00;93769.56;5066472;28;20049;-74
2023/10/06 04:50:43;;;;;;;19.60;10.48;;;;;;;13.03;100.00;93770.50;5067006;28;20044;-75
2023/10/06 04:53:11;;;;;;;23.63;10.63;;;;;;;13.07;100.00;93776.81;5065369;28;20053;-74
2023/10/06 04:55:38;;;;;;;23.02;10.93;;;;;;;13.08;100.00;93780.97;5068792;28;20130;-74
2023/10/06 04:58:09;;;;;;;30.60;10.90;;;;;;;13.09;100.00;93777.38;5066420;28;20045;-74
2023/10/06 05:00:36;;;;;;;23.90;11.20;;;;;;;13.08;100.00;93786.94;5080291;28;20044;-74
2023/10/06 05:03:06;;;;;;;21.33;9.45;;;;;;;13.10;100.00;93786.69;5070928;28;20052;-74
2023/10/06 05:05:37;;;;;;;19.55;10.05;;;;;;;13.08;100.00;93789.50;5073594;28;20048;-75
2023/10/06 05:08:09;;;;;;;18.45;10.15;;;;;;;13.14;100.00;93797.41;5071287;28;20106;-75
2023/10/06 05:10:37;;;;;;;21.42;11.10;;;;;;;13.11;100.00;93793.47;5073041;28;20605;-75
2023/10/06 05:13:06;;;;;;;19.08;10.57;;;;;;;13.11;100.00;93790.88;5070275;28;20071;-75
2023/10/06 05:15:34;;;;;;;19.80;11.25;;;;;;;13.07;100.00;93785.34;5067599;28;20163;-74
2023/10/06 05:18:03;;;;;;;23.23;11.20;;;;;;;13.22;100.00;93799.72;5078802;28;20142;-74
2023/10/06 05:20:31;;;;;;;21.20;10.18;;;;;;;13.23;100.00;93788.38;5073995;28;20527;-74
2023/10/06 05:23:02;;;;;;;19.60;10.05;;;;;;;13.30;100.00;93798.66;5069426;28;20059;-74
2023/10/06 05:25:29;;;;;;;22.05;10.27;;;;;;;13.32;100.00;93794.88;5071389;28;20554;-74
2023/10/06 05:27:57;;;;;;;22.10;10.60;;;;;;;13.42;100.00;93809.09;5072848;28;20059;-74
2023/10/06 05:30:25;;;;;;;23.05;11.30;;;;;;;13.46;100.00;93816.22;5066314;28;20432;-74
2023/10/06 05:32:57;;;;;;;24.95;11.52;;;;;;;13.52;100.00;93811.22;5074967;28;20118;-74
2023/10/06 05:35:24;;;;;;;24.92;12.10;;;;;;;13.57;100.00;93817.28;5068237;28;20048;-74
2023/10/06 05:37:51;;;;;;;19.80;10.55;;;;;;;13.57;100.00;93799.22;5069271;28;20047;-74
2023/10/06 05:40:20;;;;;;;22.15;11.05;;;;;;;13.73;100.00;93817.75;5068947;28;20496;-74
2023/10/06 05:42:49;;;;;;;25.60;10.43;;;;;;;13.78;100.00;93822.28;5067468;28;20055;-74
2023/10/06 05:45:18;;;;;;;20.30;11.00;;;;;;;13.87;100.00;93824.38;5083442;28;20047;-76
2023/10/06 05:47:46;;;;;;;28.13;11.38;;;;;;;13.96;100.00;93826.66;5085064;28;20132;-75
2023/10/06 05:50:18;;;;;;;22.30;11.23;;;;;;;14.06;100.00;93828.75;5082494;28;20136;-75
2023/10/06 05:52:51;;;;;;;17.50;9.32;;;;;;;14.15;100.00;93827.44;5070670;28;20086;-77
2023/10/06 05:55:19;;;;;;;20.05;10.43;;;;;;;14.28;100.00;93832.47;5068708;28;20048;-75
2023/10/06 05:57:51;;;;;;;17.80;9.60;;;;;;;14.35;100.00;93829.78;5066776;28;20048;-75
2023/10/06 06:00:24;;;;;;;14.38;8.98;;;;;;;14.42;100.00;93827.94;5075019;28;20051;-75
2023/10/06 06:02:52;;;;;;;24.42;9.45;;;;;;;14.62;100.00;93836.44;5068471;28;20045;-75
2023/10/06 06:05:21;;;;;;;17.25;8.95;;;;;;;14.54;100.00;93817.63;5068168;28;20044;-75
2023/10/06 06:07:51;;;;;;;14.93;8.35;;;;;;;14.80;100.00;93838.22;5070448;28;20052;-76
2023/10/06 06:10:18;;;;;;;18.25;9.40;;;;;;;14.94;100.00;93841.41;5070164;28;20052;-75
2023/10/06 06:12:47;;;;;;;20.58;9.35;;;;;;;14.88;100.00;93824.19;5075798;28;20060;-75
2023/10/06 06:15:16;;;;;;;21.40;10.43;;;;;;;15.09;100.00;93846.19;5070652;28;20048;-76
2023/10/06 06:17:44;;;;;;;17.27;9.40;;;;;;;15.26;100.00;93842.91;5070915;28;20044;-76
2023/10/06 06:20:14;;;;;;;19.52;9.85;;;;;;;15.38;100.00;93842.94;5085019;28;20040;-76
2023/10/06 06:22:49;;;;;;;16.63;8.90;;;;;;;15.55;100.00;93856.03;5074822;28;20134;-76
2023/10/06 06:25:18;;;;;;;13.63;8.02;;;;;;;15.66;100.00;93855.25;5067604;28;20049;-76
2023/10/06 06:27:45;;;;;;;15.77;7.60;;;;;;;15.79;100.00;93859.41;5068711;28;20052;-76
2023/10/06 06:30:18;;;;;;;11.55;6.40;;;;;;;15.86;100.00;93861.88;5073566;28;20045;-76
2023/10/06 06:32:45;;;;;;;9.68;5.97;;;;;;;15.97;98.66;93862.94;5064556;28;20562;-75
2023/10/06 06:35:13;;;;;;;10.27;6.05;;;;;;;15.99;98.75;93863.47;5074647;28;20067;-76
2023/10/06 06:37:41;;;;;;;13.30;6.05;;;;;;;15.86;97.97;93870.44;5081291;28;20791;-76
2023/10/06 06:40:13;;;;;;;10.32;6.13;;;;;;;15.96;98.26;93869.13;5080339;28;20048;-75
2023/10/06 06:42:40;;;;;;;11.32;6.00;;;;;;;16.04;98.29;93871.38;5067728;28;20052;-75
2023/10/06 06:45:08;;;;;;;13.20;7.15;;;;;;;16.01;98.48;93875.19;5063907;28;20044;-76
2023/10/06 06:47:36;;;;;;;12.07;7.53;;;;;;;16.10;97.96;93880.81;5071287;28;20413;-76
2023/10/06 06:50:04;;;;;;;12.73;7.22;;;;;;;16.30;96.06;93875.25;5085348;28;20040;-75
2023/10/06 06:52:30;;;;;;;20.88;7.60;;;;;;;16.51;97.42;93875.66;5062339;28;20098;-75
2023/10/06 06:54:57;;;;;;;13.32;7.55;;;;;;;16.58;95.30;93865.16;5076289;28;20051;-75
2023/10/06 06:57:26;;;;;;;13.18;7.07;;;;;;;16.78;94.25;93876.94;5077155;28;20682;-76
2023/10/06 06:59:53;;;;;;;14.77;6.65;;;;;;;16.72;94.56;93883.84;5074184;28;20051;-76
2023/10/06 07:02:21;;;;;;;11.45;6.05;;;;;;;16.74;94.24;93884.41;5067922;28;20858;-75
2023/10/06 07:04:48;;;;;;;13.50;8.05;;;;;;;16.82;93.98;93876.22;5067891;28;20072;-75
2023/10/06 07:07:15;;;;;;;11.25;5.95;;;;;;;17.01;93.24;93877.84;5068962;28;20045;-75
2023/10/06 07:09:42;;;;;;;10.15;5.70;;;;;;;17.12;91.46;93878.84;5068376;28;20047;-76
2023/10/06 07:12:10;;;;;;;13.88;6.85;;;;;;;17.14;90.99;93859.44;5067815;28;20059;-77
2023/10/06 07:14:38;;;;;;;12.70;6.97;;;;;;;17.34;89.98;93871.16;5067363;28;20056;-77
2023/10/06 07:17:05;;;;;;;12.43;7.10;;;;;;;17.40;89.63;93875.41;5071142;28;20052;-77
2023/10/06 07:19:32;;;;;;;13.43;5.93;;;;;;;17.70;89.24;93878.72;5064653;28;20098;-77
2023/10/06 07:21:59;;;;;;;9.05;4.88;;;;;;;17.80;87.98;93870.28;5076777;28;20044;-77
2023/10/06 07:24:26;;;;;;;14.57;6.22;;;;;;;17.74;87.26;93872.81;5071856;28;20430;-76
2023/10/06 07:26:53;;;;;;;9.32;5.45;;;;;;;17.69;87.69;93877.16;5080902;28;20093;-77
2023/10/06 07:29:20;;;;;;;10.45;6.45;;;;;;;17.63;88.28;93878.88;5067646;28;20067;-77
2023/10/06 07:31:49;;;;;;;12.25;6.20;;;;;;;17.63;88.42;93861.47;5071315;28;20060;-77
2023/10/06 07:34:16;;;;;;;9.10;5.50;;;;;;;17.75;86.68;93873.59;5067500;28;20052;-77
2023/10/06 07:36:43;;;;;;;9.63;5.45;;;;;;;17.95;87.22;93875.69;5070522;28;20094;-76
2023/10/06 07:39:20;;;;;;;11.05;6.40;;;;;;;17.93;85.48;93853.56;5074285;28;20049;-77
2023/10/06 07:41:47;;;;;;;6.85;4.75;;;;;;;17.71;85.77;93875.88;5067142;28;20055;-76
2023/10/06 07:44:14;;;;;;;10.55;5.60;;;;;;;17.71;85.70;93870.69;5067797;28;20095;-76
2023/10/06 07:46:42;;;;;;;9.93;5.88;;;;;;;17.92;86.58;93868.38;5071765;28;20044;-76
2023/10/06 07:49:10;;;;;;;9.15;5.05;;;;;;;17.95;84.90;93867.91;5074341;28;20571;-76
2023/10/06 07:51:38;;;;;;;9.48;5.40;;;;;;;17.97;85.98;93867.66;5071884;28;20048;-77
2023/10/06 07:54:05;;;;;;;10.52;5.57;;;;;;;18.08;84.93;93861.59;5081129;28;20059;-76
2023/10/06 07:56:32;;;;;;;8.05;4.85;;;;;;;18.08;84.54;93869.41;5065083;28;20049;-76
2023/10/06 07:58:59;;;;;;;9.10;5.30;;;;;;;18.08;84.38;93874.59;5075403;28;20045;-77
2023/10/06 08:01:27;;;;;;;7.40;5.30;;;;;;;18.44;84.18;93869.06;5070302;28;20055;-76
2023/10/06 08:03:54;;;;;;;12.27;5.82;;;;;;;18.66;81.99;93876.84;5072505;28;20098;-77
2023/10/06 08:06:24;;;;;;;10.65;5.60;;;;;;;18.52;81.99;93867.84;5084457;28;20080;-77
2023/10/06 08:08:50;;;;;;;10.65;5.88;;;;;;;18.38;82.08;93857.81;5070288;28;20487;-76
2023/10/06 08:11:17;;;;;;;10.55;6.07;;;;;;;18.69;80.98;93873.78;5078520;28;20044;-76
2023/10/06 08:13:44;;;;;;;9.88;7.20;;;;;;;18.60;81.99;93870.00;5085497;28;20056;-77
2023/10/06 08:16:13;;;;;;;10.35;5.93;;;;;;;18.63;81.23;93871.34;5075281;28;20056;-76
2023/10/06 08:18:40;;;;;;;7.85;5.15;;;;;;;18.63;79.44;93837.53;5083863;28;20097;-76
2023/10/06 08:21:06;;;;;;;10.13;4.90;;;;;;;18.74;80.26;93873.03;5069192;28;20127;-76
2023/10/06 08:23:36;;;;;;;8.95;5.88;;;;;;;19.03;80.35;93874.63;5070215;28;20484;-77
2023/10/06 08:26:07;;;;;;;12.45;5.80;;;;;;;19.24;78.01;93878.22;5069368;28;20074;-77
2023/10/06 08:28:35;;;;;;;7.25;5.10;;;;;;;19.17;78.05;93881.03;5070651;28;20052;-77
2023/10/06 08:31:02;;;;;;;7.68;5.00;;;;;;;19.15;78.02;93870.06;5069673;28;20056;-77
2023/10/06 08:33:29;;;;;;;10.57;6.45;;;;;;;19.12;76.28;93875.75;5076433;28;20055;-78
2023/10/06 08:35:57;;;;;;;12.13;6.40;;;;;;;19.14;75.15;93881.53;5065800;28;20052;-77
2023/10/06 08:38:24;;;;;;;12.68;6.30;;;;;;;18.82;76.77;93877.00;5077479;28;20060;-77
2023/10/06 08:40:56;;;;;;;10.82;5.70;;;;;;;18.75;76.60;93855.59;5068673;28;20113;-77
2023/10/06 08:43:27;;;;;;;10.07;6.28;;;;;;;18.78;76.56;93865.50;5070123;28;20048;-77
2023/10/06 08:45:55;;;;;;;15.50;6.80;;;;;;;19.05;75.62;93865.56;5070017;28;20128;-77
2023/10/06 08:48:25;;;;;;;12.25;5.47;;;;;;;19.16;73.20;93874.25;5075138;28;20052;-78
2023/10/06 08:50:54;;;;;;;10.85;5.88;;;;;;;18.59;75.10;93857.25;5087456;28;20056;-78
2023/10/06 08:53:24;;;;;;;9.82;5.72;;;;;;;18.81;73.99;93870.25;5087085;28;20044;-78
2023/10/06 08:55:52;;;;;;;10.38;5.57;;;;;;;19.05;73.78;93870.78;5073280;28;20126;-78
2023/10/06 08:58:20;;;;;;;8.63;5.32;;;;;;;19.20;72.85;93872.72;5070412;28;20040;-78
2023/10/06 09:00:47;;;;;;;9.95;5.95;;;;;;;19.15;71.95;93874.47;5067920;28;20072;-77
2023/10/06 09:03:14;;;;;;;8.88;5.45;;;;;;;19.18;72.41;93864.38;5085111;28;20155;-78
2023/10/06 09:05:42;;;;;;;8.45;5.35;;;;;;;19.39;71.48;93874.19;5078483;28;20056;-77
2023/10/06 09:08:11;;;;;;;8.52;5.00;;;;;;;19.47;71.40;93856.28;5076389;28;20131;-77
2023/10/06 09:10:40;;;;;;;10.00;5.82;;;;;;;19.62;70.15;93871.22;5069369;28;20369;-78
2023/10/06 09:13:11;;;;;;;10.98;5.93;;;;;;;19.68;70.68;93853.03;5070310;28;20123;-77
2023/10/06 09:15:39;;;;;;;10.18;5.65;;;;;;;20.05;68.92;93875.72;5069470;28;20056;-77
2023/10/06 09:18:20;;;;;;;7.90;4.95;;;;;;;20.07;67.78;93871.00;5076230;28;20045;-77
2023/10/06 09:20:48;;;;;;;8.30;4.82;;;;;;;20.11;67.91;93879.91;5062191;28;20048;-77
2023/10/06 09:23:30;;;;;;;14.55;5.28;;;;;;;20.33;68.25;93881.59;5065198;28;20072;-77
2023/10/06 09:25:57;;;;;;;10.60;5.30;;;;;;;20.15;67.57;93841.84;5071488;28;20440;-77
2023/10/06 09:28:26;;;;;;;9.60;5.40;;;;;;;20.48;66.10;93873.03;5066390;28;20094;-77
2023/10/06 09:30:57;;;;;;;11.27;5.38;;;;;;;20.57;65.58;93883.75;5076295;28;20048;-77
2023/10/06 09:33:26;;;;;;;7.55;4.82;;;;;;;19.99;66.32;93861.84;5069003;28;20051;-77
2023/10/06 09:36:05;;;;;;;8.57;5.25;;;;;;;19.70;67.09;93875.19;5064485;28;20044;-77
2023/10/06 09:38:32;;;;;;;8.50;5.00;;;;;;;19.72;67.50;93865.28;5073324;28;20052;-77
2023/10/06 09:40:59;;;;;;;9.30;5.47;;;;;;;19.96;67.85;93874.56;5087072;28;20048;-77
2023/10/06 09:43:33;;;;;;;11.23;5.78;;;;;;;20.21;66.23;93871.34;5067199;28;20052;-78
2023/10/06 09:46:07;;;;;;;10.05;5.57;;;;;;;20.17;65.80;93875.50;5077064;28;20060;-77
2023/10/06 09:48:37;;;;;;;9.27;5.25;;;;;;;20.10;65.11;93875.75;5068817;28;20106;-77
2023/10/06 09:51:07;;;;;;;10.75;6.20;;;;;;;20.24;64.94;93877.88;5067069;28;20056;-77
2023/10/06 09:53:38;;;;;;;11.93;5.07;;;;;;;20.35;66.21;93871.66;5067239;28;20044;-77
2023/10/06 09:56:07;;;;;;;8.07;5.38;;;;;;;20.39;65.51;93882.38;5065181;28;20076;-77
2023/10/06 09:58:36;;;;;;;8.48;5.65;;;;;;;20.44;65.82;93869.34;5065179;28;20070;-78
2023/10/06 10:01:04;;;;;;;13.45;6.30;;;;;;;20.38;65.54;93881.63;5073998;28;20047;-77
2023/10/06 10:03:33;;;;;;;9.82;5.65;;;;;;;20.45;65.21;93872.75;5069760;28;20412;-77
2023/10/06 10:06:04;;;;;;;10.13;5.25;;;;;;;20.31;65.94;93875.06;5069060;28;20084;-76
2023/10/06 10:08:32;;;;;;;8.40;5.32;;;;;;;20.25;66.45;93872.41;5069825;28;20058;-77
2023/10/06 10:11:01;;;;;;;10.18;5.22;;;;;;;20.14;66.82;93870.81;5072212;28;20127;-77
2023/10/06 10:13:58;;;;;;;10.77;5.53;;;;;;;20.22;67.34;93867.69;5068795;28;20051;-78
2023/10/06 10:16:46;;;;;;;9.05;5.38;;;;;;;20.21;66.57;93860.91;5051010;28;20134;-77
2023/10/06 10:19:17;;;;;;;6.97;4.53;;;;;;;20.34;65.96;93861.47;5051312;28;20670;-76
2023/10/06 10:21:44;;;;;;;12.52;5.47;;;;;;;20.30;66.98;93856.00;5067818;28;20416;-76
2023/10/06 10:24:13;;;;;;;11.73;4.70;;;;;;;20.15;65.80;93854.88;5073517;28;20047;-78
2023/10/06 10:26:41;;;;;;;9.45;4.95;;;;;;;20.28;65.55;93851.03;5068021;28;20052;-76
2023/10/06 10:29:31;;;;;;;13.32;4.85;;;;;;;20.35;64.84;93840.38;5064289;28;20520;-77
2023/10/06 10:32:01;;;;;;;12.98;5.57;;;;;;;20.20;64.79;93820.22;5071723;28;20056;-77
2023/10/06 10:34:33;;;;;;;13.60;5.45;;;;;;;20.15;66.32;93834.00;5085656;28;20131;-76
2023/10/06 10:37:16;;;;;;;14.30;5.50;;;;;;;20.11;66.54;93827.75;5067442;28;20056;-76
2023/10/06 10:39:49;;;;;;;12.25;5.63;;;;;;;20.11;66.44;93813.91;5070760;28;20392;-77
2023/10/06 10:42:18;;;;;;;12.48;5.03;;;;;;;20.13;66.33;93809.22;5067647;28;20630;-76
2023/10/06 10:44:48;;;;;;;9.32;5.28;;;;;;;20.23;66.69;93819.69;5065109;28;20510;-76
2023/10/06 10:47:16;;;;;;;14.18;6.32;;;;;;;20.39;66.96;93824.97;5062448;28;20053;-77
2023/10/06 10:49:46;;;;;;;11.00;5.60;;;;;;;20.38;66.55;93823.41;5074504;28;20063;-77
2023/10/06 10:52:13;;;;;;;8.07;4.97;;;;;;;20.21;66.57;93816.56;5085310;28;20404;-77
2023/10/06 10:54:42;;;;;;;10.70;5.20;;;;;;;19.67;66.85;93810.53;5065399;28;20098;-76
2023/10/06 10:57:13;;;;;;;10.65;4.95;;;;;;;19.89;65.81;93817.44;5062948;28;20052;-77
2023/10/06 11:00:14;;;;;;;10.27;5.05;;;;;;;19.94;65.64;93817.47;5069799;28;20125;-76
2023/10/06 11:02:42;;;;;;;9.25;4.53;;;;;;;19.61;65.07;93788.88;5065023;28;20147;-77
2023/10/06 11:05:09;;;;;;;14.32;5.13;;;;;;;19.65;64.59;93802.19;5062212;28;20056;-77
2023/10/06 11:07:37;;;;;;;10.85;4.53;;;;;;;19.85;63.74;93804.13;5077114;28;20129;-77
2023/10/06 11:10:04;;;;;;;8.68;4.22;;;;;;;19.95;62.77;93802.63;5084673;28;20048;-76
2023/10/06 11:12:31;;;;;;;15.77;4.43;;;;;;;20.05;63.23;93800.09;5079167;28;20492;-76
2023/10/06 11:15:13;;;;;;;10.38;4.68;;;;;;;20.16;62.61;93801.69;5066688;28;20052;-76
2023/10/06 11:17:43;;;;;;;8.18;4.10;;;;;;;20.06;61.53;93793.81;5080616;28;20522;-77
2023/10/06 11:20:15;;;;;;;11.02;4.65;;;;;;;20.14;61.81;93795.94;5067029;28;20055;-77
2023/10/06 11:22:54;;;;;;;11.43;4.68;;;;;;;20.14;61.74;93761.25;5085543;28;20097;-77
2023/10/06 11:25:26;;;;;;;8.70;3.90;;;;;;;20.42;60.13;93793.16;5080907;28;20072;-76
2023/10/06 11:27:57;;;;;;;9.73;5.25;;;;;;;20.55;60.52;93795.28;5072475;28;20052;-77
2023/10/06 11:30:28;;;;;;;8.52;3.83;;;;;;;20.74;59.67;93781.72;5067684;28;20059;-76
2023/10/06 11:32:58;;;;;;;8.15;4.20;;;;;;;20.82;57.87;93793.50;5069478;28;20056;-77